Time;durP1;ratioP1;P1;durP2;ratioP2;P2;SDS_P1;SDS_P2;PMS_P1;PMS_P2;Temp;Humidity;BMP_temperature;BMP_pressure;BME280_temperature;BME280_humidity;BME280_pressure;Samples;Min_cycle;Max_cycle;Signal;HPM_P1;HPM_P2
2021/11/15 00:01:31;;;;;;;15.30;13.20;;;8.70;99.90;;;;;;5051032;28;20804;-65
2021/11/15 00:03:57;;;;;;;16.03;12.67;;;8.70;99.90;;;;;;5050519;28;20206;-66
2021/11/15 00:06:23;;;;;;;17.47;14.67;;;8.70;99.90;;;;;;5050991;28;20665;-66
2021/11/15 00:08:49;;;;;;;16.10;12.77;;;8.70;99.90;;;;;;5050981;28;20179;-65
2021/11/15 00:11:14;;;;;;;17.93;12.90;;;8.60;99.90;;;;;;5050586;28;20175;-65
2021/11/15 00:13:40;;;;;;;13.80;12.30;;;8.70;99.90;;;;;;5050758;28;20293;-65
2021/11/15 00:16:06;;;;;;;15.23;12.33;;;8.70;99.90;;;;;;5054524;28;20171;-65
2021/11/15 00:18:31;;;;;;;13.13;11.93;;;8.70;99.90;;;;;;5054712;28;20163;-65
2021/11/15 00:20:57;;;;;;;13.80;12.40;;;8.70;99.90;;;;;;5052830;28;20179;-65
2021/11/15 00:23:23;;;;;;;14.30;12.70;;;8.70;99.90;;;;;;5054545;28;20294;-65
2021/11/15 00:25:49;;;;;;;13.80;12.30;;;8.60;99.90;;;;;;5054358;28;20266;-65
2021/11/15 00:28:15;;;;;;;13.03;11.73;;;8.70;99.90;;;;;;5054530;28;20201;-65
2021/11/15 00:30:41;;;;;;;13.17;11.90;;;8.70;99.90;;;;;;5053841;28;20179;-65
2021/11/15 00:33:07;;;;;;;14.63;13.23;;;8.60;99.90;;;;;;5052848;28;20203;-66
2021/11/15 00:35:32;;;;;;;14.10;12.70;;;8.60;99.90;;;;;;5054305;28;20171;-65
2021/11/15 00:37:58;;;;;;;15.23;13.67;;;8.70;99.90;;;;;;5054117;28;20206;-65
2021/11/15 00:40:24;;;;;;;14.13;12.63;;;8.70;99.90;;;;;;5054325;28;20186;-65
2021/11/15 00:42:50;;;;;;;15.37;13.73;;;8.70;99.90;;;;;;5053938;28;20701;-65
2021/11/15 00:45:16;;;;;;;14.47;13.07;;;8.70;99.90;;;;;;5053920;28;20257;-65
2021/11/15 00:47:42;;;;;;;13.80;12.43;;;8.70;99.90;;;;;;5054099;28;20178;-65
2021/11/15 00:50:10;;;;;;;12.87;11.63;;;8.70;99.90;;;;;;5053586;28;20179;-65
2021/11/15 00:52:36;;;;;;;11.93;10.93;;;8.70;99.90;;;;;;5053827;28;20262;-65
2021/11/15 00:55:03;;;;;;;14.07;12.07;;;8.60;99.90;;;;;;5053554;28;20698;-65
2021/11/15 00:57:29;;;;;;;13.03;11.63;;;8.60;99.90;;;;;;5054094;28;20250;-65
2021/11/15 00:59:54;;;;;;;13.30;12.10;;;8.70;99.90;;;;;;5052184;28;20281;-65
2021/11/15 01:02:22;;;;;;;14.47;13.10;;;8.60;99.90;;;;;;5053561;28;20207;-65
2021/11/15 01:04:48;;;;;;;13.93;12.53;;;8.60;99.90;;;;;;5053313;28;20267;-66
2021/11/15 01:07:15;;;;;;;13.20;11.90;;;8.60;99.90;;;;;;5053534;28;20725;-66
2021/11/15 01:09:41;;;;;;;14.67;13.17;;;8.60;99.90;;;;;;5053510;28;20171;-65
2021/11/15 01:12:07;;;;;;;14.37;12.87;;;8.60;99.90;;;;;;5053479;28;20612;-65
2021/11/15 01:14:33;;;;;;;14.53;13.13;;;8.50;99.90;;;;;;5053771;28;20199;-65
2021/11/15 01:16:58;;;;;;;13.97;12.57;;;8.60;99.90;;;;;;5053837;28;20256;-66
2021/11/15 01:19:24;;;;;;;13.27;11.87;;;8.60;99.90;;;;;;5053162;28;20236;-66
2021/11/15 01:21:50;;;;;;;13.43;12.10;;;8.60;99.90;;;;;;5053104;28;20762;-66
2021/11/15 01:24:15;;;;;;;14.23;12.83;;;8.60;99.90;;;;;;5053217;28;20545;-65
2021/11/15 01:26:42;;;;;;;15.20;13.60;;;8.60;99.90;;;;;;5053118;28;20178;-65
2021/11/15 01:29:09;;;;;;;14.97;13.47;;;8.60;99.90;;;;;;5053066;28;20175;-65
2021/11/15 01:31:34;;;;;;;14.20;12.90;;;8.60;99.90;;;;;;5052838;28;20183;-65
2021/11/15 01:34:02;;;;;;;18.17;13.03;;;8.60;99.90;;;;;;5051713;28;20199;-65
2021/11/15 01:36:28;;;;;;;13.20;11.70;;;8.60;99.90;;;;;;5052669;28;20175;-65
2021/11/15 01:38:54;;;;;;;14.13;12.70;;;8.60;99.90;;;;;;5052898;28;20186;-65
2021/11/15 01:41:19;;;;;;;13.27;11.97;;;8.60;99.90;;;;;;5052605;28;20186;-65
2021/11/15 01:43:45;;;;;;;13.87;12.47;;;8.60;99.90;;;;;;5052979;28;20198;-66
2021/11/15 01:46:11;;;;;;;13.73;12.33;;;8.60;99.90;;;;;;5052569;28;20182;-66
2021/11/15 01:48:37;;;;;;;15.50;11.47;;;8.60;99.90;;;;;;5052880;28;20174;-65
2021/11/15 01:51:03;;;;;;;13.10;11.67;;;8.60;99.90;;;;;;5052312;28;20599;-65
2021/11/15 01:53:29;;;;;;;13.30;11.97;;;8.60;99.90;;;;;;5052680;28;20198;-65
2021/11/15 01:55:54;;;;;;;13.50;12.07;;;8.60;99.90;;;;;;5052595;28;20253;-65
2021/11/15 01:58:20;;;;;;;12.73;11.53;;;8.50;99.90;;;;;;5051399;28;20186;-65
2021/11/15 02:01:04;;;;;;;12.70;11.57;;;8.60;99.90;;;;;;5052029;28;20190;-66
2021/11/15 02:03:32;;;;;;;14.17;11.93;;;8.50;99.90;;;;;;5052013;28;20268;-65
2021/11/15 02:05:58;;;;;;;12.80;11.57;;;8.50;99.90;;;;;;5052353;28;20518;-65
2021/11/15 02:08:24;;;;;;;13.37;12.00;;;8.50;99.90;;;;;;5052283;28;20179;-66
2021/11/15 02:10:51;;;;;;;12.73;11.43;;;8.50;99.90;;;;;;5051938;28;20644;-66
2021/11/15 02:13:19;;;;;;;13.40;11.93;;;8.50;99.90;;;;;;5052250;28;20197;-66
2021/11/15 02:15:46;;;;;;;13.07;11.80;;;8.50;99.90;;;;;;5052074;28;20240;-66
2021/11/15 02:18:12;;;;;;;12.43;11.33;;;8.60;99.90;;;;;;5052451;28;20175;-66
2021/11/15 02:20:45;;;;;;;13.30;11.53;;;8.60;99.90;;;;;;5051772;28;20248;-66
2021/11/15 02:23:11;;;;;;;12.27;11.10;;;8.50;99.90;;;;;;5052161;28;20230;-66
2021/11/15 02:25:38;;;;;;;12.20;10.70;;;8.50;99.90;;;;;;5051809;28;20193;-65
2021/11/15 02:28:03;;;;;;;12.60;11.40;;;8.60;99.90;;;;;;5052613;28;20539;-67
2021/11/15 02:30:29;;;;;;;13.27;12.07;;;8.50;99.90;;;;;;5052609;28;20166;-67
2021/11/15 02:32:55;;;;;;;13.97;12.23;;;8.50;99.90;;;;;;5052130;28;20199;-65
2021/11/15 02:35:23;;;;;;;13.67;12.17;;;8.50;99.90;;;;;;5052532;28;20213;-67
2021/11/15 02:37:49;;;;;;;14.17;11.43;;;8.40;99.90;;;;;;5051685;28;20193;-66
2021/11/15 02:40:18;;;;;;;12.90;11.80;;;8.40;99.90;;;;;;5050557;28;20269;-66
2021/11/15 02:42:46;;;;;;;13.20;12.00;;;8.40;99.90;;;;;;5050173;28;20294;-66
2021/11/15 02:45:14;;;;;;;13.00;11.67;;;8.50;99.90;;;;;;5051976;28;20167;-66
2021/11/15 02:47:40;;;;;;;13.47;12.03;;;8.50;99.90;;;;;;5051542;28;20247;-67
2021/11/15 02:50:07;;;;;;;12.83;11.63;;;8.50;99.90;;;;;;5051700;28;20171;-67
2021/11/15 02:52:33;;;;;;;14.23;11.37;;;8.50;99.90;;;;;;5051026;28;20182;-67
2021/11/15 02:54:59;;;;;;;12.87;11.57;;;8.50;99.90;;;;;;5051697;28;20177;-67
2021/11/15 02:57:26;;;;;;;12.90;11.60;;;8.60;99.90;;;;;;5051468;28;20232;-66
2021/11/15 02:59:53;;;;;;;13.60;12.20;;;8.60;99.90;;;;;;5051238;28;20232;-66
2021/11/15 03:02:23;;;;;;;12.47;11.20;;;8.60;99.90;;;;;;5051652;28;20702;-66
2021/11/15 03:04:49;;;;;;;13.17;11.77;;;8.60;99.90;;;;;;5051305;28;20557;-66
2021/11/15 03:07:14;;;;;;;13.70;12.20;;;8.60;99.90;;;;;;5051627;28;20174;-66
2021/11/15 03:09:40;;;;;;;13.27;12.03;;;8.60;99.90;;;;;;5051089;28;20282;-66
2021/11/15 03:12:08;;;;;;;14.10;11.83;;;8.60;99.90;;;;;;5051595;28;20209;-67
2021/11/15 03:14:34;;;;;;;13.77;12.47;;;8.60;99.90;;;;;;5051451;28;20213;-67
2021/11/15 03:17:00;;;;;;;14.10;12.70;;;8.70;99.90;;;;;;5051444;28;20182;-66
2021/11/15 03:19:25;;;;;;;13.93;12.53;;;8.70;99.90;;;;;;5049507;28;20273;-66
2021/11/15 03:21:51;;;;;;;13.37;12.00;;;8.70;99.90;;;;;;5051353;28;20289;-66
2021/11/15 03:24:17;;;;;;;15.27;13.90;;;8.70;99.90;;;;;;5051232;28;20207;-66
2021/11/15 03:26:42;;;;;;;14.57;13.17;;;8.70;99.90;;;;;;5050155;28;20178;-66
2021/11/15 03:29:08;;;;;;;13.07;11.77;;;8.70;99.90;;;;;;5049466;28;20206;-66
2021/11/15 03:31:35;;;;;;;14.90;13.40;;;8.60;99.90;;;;;;5051635;28;20628;-66
2021/11/15 03:34:07;;;;;;;13.03;11.60;;;8.60;99.90;;;;;;5051360;28;20191;-67
2021/11/15 03:36:34;;;;;;;13.07;11.87;;;8.70;99.90;;;;;;5050870;28;20273;-66
2021/11/15 03:39:00;;;;;;;13.97;12.57;;;8.70;99.90;;;;;;5051036;28;20659;-66
2021/11/15 03:41:28;;;;;;;13.50;11.27;;;8.70;99.90;;;;;;5051303;28;20179;-67
2021/11/15 03:43:54;;;;;;;13.33;12.03;;;8.70;99.90;;;;;;5051111;28;20694;-66
2021/11/15 03:46:20;;;;;;;13.70;12.40;;;8.80;99.90;;;;;;5051424;28;20175;-66
2021/11/15 03:48:46;;;;;;;13.00;11.80;;;8.80;99.90;;;;;;5052368;28;20175;-66
2021/11/15 03:51:12;;;;;;;12.93;11.63;;;8.80;99.90;;;;;;5054969;28;20190;-67
2021/11/15 03:53:40;;;;;;;13.23;11.77;;;8.80;99.90;;;;;;5054878;28;20260;-67
2021/11/15 03:56:10;;;;;;;12.93;11.67;;;8.90;99.90;;;;;;5055219;28;20190;-66
2021/11/15 03:58:36;;;;;;;12.90;11.60;;;8.80;99.90;;;;;;5054814;28;20179;-66
2021/11/15 04:01:02;;;;;;;13.30;11.87;;;8.80;99.90;;;;;;5054634;28;20178;-66
2021/11/15 04:03:33;;;;;;;12.83;11.63;;;8.80;99.90;;;;;;5055113;28;20207;-66
2021/11/15 04:06:11;;;;;;;13.33;11.93;;;8.80;99.90;;;;;;5035202;28;20253;-67
2021/11/15 04:08:37;;;;;;;12.80;11.60;;;8.80;99.90;;;;;;5035555;28;20229;-67
2021/11/15 04:11:05;;;;;;;14.00;12.60;;;8.70;99.90;;;;;;5054609;28;20615;-66
2021/11/15 04:13:37;;;;;;;15.13;13.63;;;8.70;99.90;;;;;;5055103;28;20256;-66
2021/11/15 04:16:06;;;;;;;14.70;13.30;;;8.60;99.90;;;;;;5054713;28;20178;-67
2021/11/15 04:18:35;;;;;;;13.97;12.67;;;8.60;99.90;;;;;;5054738;28;20175;-66
2021/11/15 04:21:01;;;;;;;16.27;13.93;;;8.60;99.90;;;;;;5054299;28;20185;-66
2021/11/15 04:23:27;;;;;;;13.10;11.77;;;8.60;99.90;;;;;;5053442;28;20226;-66
2021/11/15 04:25:53;;;;;;;13.67;12.13;;;8.60;99.90;;;;;;5054679;28;20183;-66
2021/11/15 04:28:19;;;;;;;14.77;13.27;;;8.60;99.90;;;;;;5054468;28;20182;-66
2021/11/15 04:30:45;;;;;;;16.57;13.27;;;8.60;99.90;;;;;;5054234;28;20632;-66
2021/11/15 04:33:10;;;;;;;16.77;13.33;;;8.60;99.90;;;;;;5053317;28;20195;-65
2021/11/15 04:35:37;;;;;;;16.87;13.93;;;8.60;99.90;;;;;;5054300;28;20649;-66
2021/11/15 04:38:04;;;;;;;14.70;13.33;;;8.60;99.90;;;;;;5054028;28;20171;-66
2021/11/15 04:40:30;;;;;;;14.00;12.60;;;8.60;99.90;;;;;;5054218;28;20191;-67
2021/11/15 04:42:56;;;;;;;15.13;13.73;;;8.60;99.90;;;;;;5054112;28;20206;-66
2021/11/15 04:45:22;;;;;;;15.40;13.50;;;8.60;99.90;;;;;;5054240;28;20175;-66
2021/11/15 04:47:48;;;;;;;17.37;13.93;;;8.60;99.90;;;;;;5054113;28;20190;-66
2021/11/15 04:50:15;;;;;;;16.50;14.83;;;8.60;99.90;;;;;;5053778;28;20598;-66
2021/11/15 04:52:41;;;;;;;15.03;13.63;;;8.60;99.90;;;;;;5053932;28;20206;-66
2021/11/15 04:55:09;;;;;;;19.27;14.50;;;8.60;99.90;;;;;;5053747;28;20190;-66
2021/11/15 04:57:36;;;;;;;15.43;13.60;;;8.70;99.90;;;;;;5052746;28;20194;-66
2021/11/15 05:00:18;;;;;;;14.63;13.13;;;8.70;99.90;;;;;;5053223;28;20207;-66
2021/11/15 05:02:45;;;;;;;15.77;14.20;;;8.70;99.90;;;;;;5033753;28;20353;-66
2021/11/15 05:05:11;;;;;;;17.10;13.70;;;8.70;99.90;;;;;;5033879;28;20637;-66
2021/11/15 05:07:37;;;;;;;17.37;14.80;;;8.70;99.90;;;;;;5053958;28;20632;-66
2021/11/15 05:10:03;;;;;;;14.90;13.17;;;8.70;99.90;;;;;;5053613;28;20201;-67
2021/11/15 05:12:34;;;;;;;15.43;13.83;;;8.60;99.90;;;;;;5053392;28;20699;-68
2021/11/15 05:15:00;;;;;;;16.90;13.63;;;8.60;99.90;;;;;;5053767;28;20297;-67
2021/11/15 05:17:25;;;;;;;14.93;13.47;;;8.60;99.90;;;;;;5053459;28;20186;-67
2021/11/15 05:19:51;;;;;;;16.57;14.83;;;8.50;99.90;;;;;;5053300;28;20281;-67
2021/11/15 05:22:16;;;;;;;15.00;13.50;;;8.50;99.90;;;;;;5053578;28;20293;-66
2021/11/15 05:24:42;;;;;;;15.60;13.77;;;8.50;99.90;;;;;;5052122;28;20191;-67
2021/11/15 05:27:08;;;;;;;14.63;13.23;;;8.50;99.90;;;;;;5053198;28;20186;-67
2021/11/15 05:29:33;;;;;;;14.87;13.33;;;8.60;99.90;;;;;;5052794;28;20586;-66
2021/11/15 05:31:59;;;;;;;17.20;13.17;;;8.50;99.90;;;;;;5053150;28;20220;-66
2021/11/15 05:34:24;;;;;;;16.00;13.60;;;8.50;99.90;;;;;;5053257;28;20195;-66
2021/11/15 05:36:50;;;;;;;13.40;11.97;;;8.60;99.90;;;;;;5053413;28;20216;-66
2021/11/15 05:39:16;;;;;;;15.23;12.77;;;8.50;99.90;;;;;;5051698;28;20259;-66
2021/11/15 05:41:41;;;;;;;14.90;13.20;;;8.50;99.90;;;;;;5052915;28;20183;-67
2021/11/15 05:44:07;;;;;;;17.93;13.10;;;8.50;99.90;;;;;;5051419;28;20202;-68
2021/11/15 05:46:32;;;;;;;16.30;14.43;;;8.60;99.90;;;;;;5053184;28;20243;-68
2021/11/15 05:48:58;;;;;;;16.80;13.50;;;8.60;99.90;;;;;;5052833;28;20182;-63
2021/11/15 05:51:24;;;;;;;17.50;13.73;;;8.60;99.90;;;;;;5051568;28;20219;-68
2021/11/15 05:53:50;;;;;;;15.47;13.93;;;8.60;99.90;;;;;;5052545;28;20210;-67
2021/11/15 05:56:15;;;;;;;16.00;12.97;;;8.60;99.90;;;;;;5053090;28;20233;-67
2021/11/15 05:58:41;;;;;;;15.33;13.23;;;8.60;99.90;;;;;;5052466;28;20253;-67
2021/11/15 06:01:07;;;;;;;15.20;13.47;;;8.70;99.90;;;;;;5052452;28;20171;-67
2021/11/15 06:03:33;;;;;;;15.20;13.00;;;8.60;99.90;;;;;;5051022;28;20214;-66
2021/11/15 06:05:59;;;;;;;17.67;13.57;;;8.70;99.90;;;;;;5052491;28;20182;-66
2021/11/15 06:08:25;;;;;;;17.87;14.27;;;8.70;99.90;;;;;;5052704;28;20174;-66
2021/11/15 06:10:53;;;;;;;15.80;13.83;;;8.70;99.90;;;;;;5051343;28;20278;-67
2021/11/15 06:13:18;;;;;;;14.50;13.00;;;8.70;99.90;;;;;;5051114;28;20210;-67
2021/11/15 06:15:44;;;;;;;15.33;12.93;;;8.70;99.90;;;;;;5052265;28;20190;-67
2021/11/15 06:18:10;;;;;;;14.37;12.97;;;8.80;99.90;;;;;;5052338;28;20265;-67
2021/11/15 06:20:35;;;;;;;16.20;13.80;;;8.70;99.90;;;;;;5051755;28;20178;-67
2021/11/15 06:23:01;;;;;;;14.03;12.73;;;8.70;99.90;;;;;;5052029;28;20244;-67
2021/11/15 06:25:27;;;;;;;16.23;13.80;;;8.70;99.90;;;;;;5052415;28;20179;-67
2021/11/15 06:27:53;;;;;;;15.27;13.67;;;8.70;99.90;;;;;;5050705;28;20185;-67
2021/11/15 06:30:19;;;;;;;20.43;13.70;;;8.70;99.90;;;;;;5051757;28;20187;-67
2021/11/15 06:32:46;;;;;;;17.30;13.37;;;8.70;99.90;;;;;;5052067;28;20202;-67
2021/11/15 06:35:13;;;;;;;15.43;13.73;;;8.60;99.90;;;;;;5051714;28;20182;-67
2021/11/15 06:37:39;;;;;;;16.10;14.33;;;8.60;99.90;;;;;;5052116;28;20182;-67
2021/11/15 06:40:07;;;;;;;16.67;14.30;;;8.60;99.90;;;;;;5051345;28;20262;-67
2021/11/15 06:42:33;;;;;;;18.13;13.70;;;8.60;99.90;;;;;;5051795;28;20252;-67
2021/11/15 06:44:59;;;;;;;18.23;14.50;;;8.60;99.90;;;;;;5051694;28;20542;-67
2021/11/15 06:47:24;;;;;;;17.10;13.70;;;8.60;99.90;;;;;;5040816;28;20187;-66
2021/11/15 06:49:51;;;;;;;18.67;13.60;;;8.60;99.90;;;;;;5040603;28;20654;-67
2021/11/15 06:52:21;;;;;;;17.30;13.73;;;8.60;99.90;;;;;;5051628;28;20178;-67
2021/11/15 06:54:48;;;;;;;21.67;14.93;;;8.60;99.90;;;;;;5051434;28;20652;-67
2021/11/15 06:57:14;;;;;;;20.23;14.90;;;8.60;99.90;;;;;;5051730;28;20270;-67
2021/11/15 06:59:40;;;;;;;16.80;14.47;;;8.60;99.90;;;;;;5033036;28;20215;-67
2021/11/15 07:02:05;;;;;;;16.03;14.33;;;8.60;99.90;;;;;;5035676;28;20230;-67
2021/11/15 07:04:31;;;;;;;17.53;14.10;;;8.60;99.90;;;;;;5051375;28;20210;-67
2021/11/15 07:06:57;;;;;;;19.33;14.07;;;8.60;99.90;;;;;;5051274;28;20179;-67
2021/11/15 07:09:22;;;;;;;16.90;15.10;;;8.60;99.90;;;;;;5051260;28;20461;-67
2021/11/15 07:11:50;;;;;;;17.70;14.00;;;8.60;99.90;;;;;;5051148;28;20175;-67
2021/11/15 07:14:16;;;;;;;16.77;13.33;;;8.60;99.90;;;;;;5050059;28;20687;-67
2021/11/15 07:16:42;;;;;;;15.67;13.90;;;8.60;99.90;;;;;;5051217;28;20218;-67
2021/11/15 07:19:07;;;;;;;18.23;14.00;;;8.60;99.90;;;;;;5051017;28;20599;-67
2021/11/15 07:21:33;;;;;;;14.83;13.27;;;8.60;99.90;;;;;;5042005;28;20558;-67
2021/11/15 07:23:59;;;;;;;21.43;15.17;;;8.50;99.90;;;;;;5031215;28;20235;-67
2021/11/15 07:26:25;;;;;;;17.83;15.00;;;8.50;99.90;;;;;;5049301;28;20187;-67
2021/11/15 07:28:51;;;;;;;18.23;15.33;;;8.50;99.90;;;;;;5050944;28;20283;-67
2021/11/15 07:31:17;;;;;;;17.30;14.13;;;8.50;99.90;;;;;;5050522;28;20257;-67
2021/11/15 07:33:43;;;;;;;14.57;13.07;;;8.50;99.90;;;;;;5051119;28;20266;-67
2021/11/15 07:36:09;;;;;;;18.37;14.47;;;8.50;99.90;;;;;;5050982;28;20194;-67
2021/11/15 07:38:35;;;;;;;16.50;14.93;;;8.50;99.90;;;;;;5051132;28;20228;-67
2021/11/15 07:41:01;;;;;;;18.90;14.83;;;8.50;99.90;;;;;;5050528;28;20611;-67
2021/11/15 07:43:26;;;;;;;18.33;14.40;;;8.50;99.90;;;;;;5049427;28;20207;-67
2021/11/15 07:45:52;;;;;;;16.13;14.33;;;8.50;99.90;;;;;;5051064;28;20174;-65
2021/11/15 07:48:18;;;;;;;16.53;13.60;;;8.50;99.90;;;;;;5050873;28;20577;-65
2021/11/15 07:50:44;;;;;;;19.03;14.70;;;8.50;99.90;;;;;;5050498;28;20187;-65
2021/11/15 07:53:10;;;;;;;15.67;13.90;;;8.50;99.90;;;;;;5050626;28;20281;-65
2021/11/15 07:55:36;;;;;;;15.77;13.40;;;8.50;99.90;;;;;;5050934;28;20627;-65
2021/11/15 07:58:04;;;;;;;16.43;13.53;;;8.60;99.90;;;;;;5050794;28;20175;-68
2021/11/15 08:00:30;;;;;;;16.43;12.70;;;8.60;99.90;;;;;;5046139;28;20194;-65
2021/11/15 08:02:56;;;;;;;19.10;13.20;;;8.70;99.90;;;;;;5050790;28;20224;-65
2021/11/15 08:05:23;;;;;;;13.27;11.87;;;8.80;99.90;;;;;;5050600;28;20228;-65
2021/11/15 08:07:49;;;;;;;13.07;11.70;;;8.70;99.90;;;;;;5050948;28;20663;-65
2021/11/15 08:10:17;;;;;;;15.20;11.67;;;8.70;99.90;;;;;;5048895;28;20257;-65
2021/11/15 08:12:45;;;;;;;14.60;12.20;;;8.70;99.90;;;;;;5050633;28;20202;-65
2021/11/15 08:15:15;;;;;;;12.57;11.37;;;8.70;99.90;;;;;;5050441;28;20244;-65
2021/11/15 08:17:46;;;;;;;13.40;12.10;;;8.60;99.90;;;;;;5050758;28;20681;-65
2021/11/15 08:20:18;;;;;;;13.53;12.13;;;8.60;99.90;;;;;;5050405;28;20178;-65
2021/11/15 08:22:47;;;;;;;13.80;12.40;;;8.60;99.90;;;;;;5050544;28;20207;-65
2021/11/15 08:25:53;;;;;;;18.00;13.33;;;8.60;99.90;;;;;;5050415;28;20229;-65
2021/11/15 08:28:20;;;;;;;16.10;12.40;;;8.60;99.90;;;;;;5050371;28;20186;-65
2021/11/15 08:30:45;;;;;;;16.30;13.57;;;8.60;99.90;;;;;;5049714;28;20190;-65
2021/11/15 08:33:13;;;;;;;15.67;12.60;;;8.60;99.90;;;;;;5048931;28;20210;-65
2021/11/15 08:35:38;;;;;;;16.67;13.53;;;8.60;99.90;;;;;;5052821;28;20186;-65
2021/11/15 08:38:41;;;;;;;17.73;13.10;;;8.60;99.90;;;;;;5054254;28;20220;-65
2021/11/15 08:41:07;;;;;;;15.10;13.50;;;8.50;99.90;;;;;;5052740;28;20735;-65
2021/11/15 08:43:36;;;;;;;20.67;13.77;;;8.60;99.90;;;;;;5054116;28;20221;-65
2021/11/15 08:46:02;;;;;;;14.77;13.30;;;8.60;99.90;;;;;;5053773;28;20175;-65
2021/11/15 08:48:28;;;;;;;15.40;13.40;;;8.60;99.90;;;;;;5054238;28;20177;-65
2021/11/15 08:50:53;;;;;;;14.57;13.07;;;8.50;99.90;;;;;;5053677;28;20183;-68
2021/11/15 08:53:19;;;;;;;15.33;13.40;;;8.50;99.90;;;;;;5053901;28;20621;-66
2021/11/15 08:55:45;;;;;;;16.97;13.47;;;8.50;99.90;;;;;;5053102;28;20217;-66
2021/11/15 08:58:11;;;;;;;17.73;14.53;;;8.50;99.90;;;;;;5053889;28;20171;-66
2021/11/15 09:00:40;;;;;;;15.83;13.00;;;8.50;99.90;;;;;;5053187;28;20240;-66
2021/11/15 09:03:05;;;;;;;17.97;13.87;;;8.40;99.90;;;;;;5053464;28;20210;-66
2021/11/15 09:05:31;;;;;;;18.20;14.83;;;8.40;99.90;;;;;;5053709;28;20216;-66
2021/11/15 09:07:57;;;;;;;16.00;14.33;;;8.50;99.90;;;;;;5053766;28;20167;-66
2021/11/15 09:10:23;;;;;;;14.80;13.20;;;8.40;99.90;;;;;;5053318;28;20718;-66
2021/11/15 09:12:49;;;;;;;20.70;13.70;;;8.40;99.90;;;;;;5053432;28;20345;-65
2021/11/15 09:15:16;;;;;;;18.37;14.10;;;8.40;99.90;;;;;;5053264;28;20265;-66
2021/11/15 09:17:43;;;;;;;13.93;12.63;;;8.40;99.90;;;;;;5053327;28;20171;-66
2021/11/15 09:20:10;;;;;;;13.67;12.37;;;8.40;99.90;;;;;;5051742;28;20269;-65
2021/11/15 09:22:37;;;;;;;15.40;13.80;;;8.50;99.90;;;;;;5053516;28;20640;-66
2021/11/15 09:25:04;;;;;;;15.47;13.37;;;8.50;99.90;;;;;;5052950;28;20236;-67
2021/11/15 09:27:30;;;;;;;14.63;13.07;;;8.60;99.90;;;;;;5053119;28;20175;-67
2021/11/15 09:29:57;;;;;;;13.77;12.47;;;8.60;99.90;;;;;;5052714;28;20178;-65
2021/11/15 09:32:23;;;;;;;14.93;13.33;;;8.70;99.90;;;;;;5053253;28;20697;-66
2021/11/15 09:34:49;;;;;;;17.03;14.00;;;8.80;99.90;;;;;;5052932;28;20191;-67
2021/11/15 09:37:18;;;;;;;15.73;13.60;;;8.70;99.90;;;;;;5053011;28;20166;-66
2021/11/15 09:39:46;;;;;;;16.90;13.60;;;8.70;99.90;;;;;;5052391;28;20175;-67
2021/11/15 09:42:13;;;;;;;16.83;13.83;;;8.80;99.90;;;;;;5052981;28;20723;-67
2021/11/15 09:44:40;;;;;;;16.80;13.80;;;8.70;99.90;;;;;;5052595;28;20237;-65
2021/11/15 09:47:06;;;;;;;19.13;13.63;;;8.70;99.90;;;;;;5053428;28;20626;-66
2021/11/15 09:49:33;;;;;;;16.37;13.07;;;8.70;99.90;;;;;;5052296;28;20266;-66
2021/11/15 09:51:59;;;;;;;18.50;14.47;;;8.70;99.90;;;;;;5052630;28;20185;-66
2021/11/15 09:54:26;;;;;;;17.47;13.80;;;8.80;99.90;;;;;;5051381;28;20198;-66
2021/11/15 09:56:52;;;;;;;21.13;13.53;;;8.80;99.90;;;;;;5052844;28;20201;-66
2021/11/15 09:59:19;;;;;;;15.97;14.30;;;8.80;99.90;;;;;;5052254;28;20644;-66
2021/11/15 10:01:47;;;;;;;15.57;12.73;;;8.80;99.90;;;;;;5052268;28;20175;-67
2021/11/15 10:04:16;;;;;;;19.50;13.97;;;8.80;99.90;;;;;;5053034;28;20297;-67
2021/11/15 10:06:43;;;;;;;18.43;13.80;;;8.80;99.90;;;;;;5052253;28;20179;-66
2021/11/15 10:09:09;;;;;;;14.87;13.33;;;8.80;99.90;;;;;;5052137;28;20171;-65
2021/11/15 10:11:53;;;;;;;15.70;13.83;;;8.80;99.90;;;;;;5052094;28;20632;-66
2021/11/15 10:14:20;;;;;;;18.30;13.80;;;8.90;99.90;;;;;;5052316;28;20286;-66
2021/11/15 10:16:55;;;;;;;14.77;13.13;;;8.80;99.90;;;;;;5052116;28;20305;-69
2021/11/15 10:19:22;;;;;;;15.87;12.83;;;8.80;99.90;;;;;;5050670;28;20201;-66
2021/11/15 10:21:50;;;;;;;17.47;13.50;;;8.80;99.90;;;;;;5051842;28;20175;-66
2021/11/15 10:24:33;;;;;;;17.10;13.90;;;8.80;99.90;;;;;;5050860;28;20195;-66
2021/11/15 10:27:09;;;;;;;17.10;14.33;;;8.80;99.90;;;;;;5032323;28;20171;-66
2021/11/15 10:29:49;;;;;;;14.90;13.43;;;8.90;99.90;;;;;;5032268;28;20229;-65
2021/11/15 10:32:31;;;;;;;15.07;13.57;;;8.90;99.90;;;;;;5052226;28;20206;-67
2021/11/15 10:34:59;;;;;;;14.00;12.00;;;8.90;99.90;;;;;;5052976;28;20591;-67
2021/11/15 10:37:33;;;;;;;17.37;13.13;;;8.90;99.90;;;;;;5051924;28;20175;-66
2021/11/15 10:40:08;;;;;;;17.10;13.93;;;9.00;99.90;;;;;;5051626;28;20182;-66
2021/11/15 10:42:52;;;;;;;16.93;14.03;;;9.00;99.90;;;;;;5051722;28;20221;-67
2021/11/15 10:45:23;;;;;;;16.37;14.17;;;9.00;99.90;;;;;;5051852;28;20175;-66
2021/11/15 10:47:56;;;;;;;15.63;14.03;;;9.10;99.90;;;;;;5050108;28;20202;-66
2021/11/15 10:53:44;;;;;;;15.23;13.53;;;9.20;99.90;;;;;;5037864;28;20672;-66
2021/11/15 10:56:18;;;;;;;17.43;13.63;;;9.20;99.90;;;;;;5051768;28;20202;-66
2021/11/15 10:58:47;;;;;;;18.87;15.00;;;9.20;99.90;;;;;;5050444;28;20580;-67
2021/11/15 11:01:14;;;;;;;18.13;13.67;;;9.30;99.90;;;;;;5050998;28;20651;-66
2021/11/15 11:03:42;;;;;;;20.53;16.10;;;9.20;99.90;;;;;;5051195;28;20604;-66
2021/11/15 11:06:13;;;;;;;23.20;15.53;;;9.10;99.90;;;;;;5050155;28;20182;-65
2021/11/15 11:08:45;;;;;;;18.33;15.83;;;9.10;99.90;;;;;;5051486;28;20174;-67
2021/11/15 11:11:15;;;;;;;16.77;14.70;;;9.20;99.90;;;;;;5049600;28;20220;-67
2021/11/15 11:13:54;;;;;;;17.83;15.57;;;9.30;99.90;;;;;;5051291;28;20190;-66
2021/11/15 11:16:47;;;;;;;15.90;14.30;;;9.20;99.90;;;;;;5051403;28;20182;-66
2021/11/15 11:19:32;;;;;;;15.60;14.03;;;9.20;99.90;;;;;;5051001;28;20178;-66
2021/11/15 11:27:32;;;;;;;20.77;13.90;;;9.10;99.90;;;;;;5051252;28;20254;-65
2021/11/15 11:29:58;;;;;;;23.10;14.13;;;9.10;99.90;;;;;;5051018;28;20171;-65
2021/11/15 11:32:26;;;;;;;14.70;13.13;;;9.10;99.90;;;;;;5051227;28;20232;-66
2021/11/15 11:34:56;;;;;;;15.60;13.33;;;9.20;99.90;;;;;;5051346;28;20171;-65
2021/11/15 11:37:25;;;;;;;15.17;13.43;;;9.20;99.90;;;;;;5050188;28;20654;-67
2021/11/15 11:39:52;;;;;;;12.63;11.33;;;9.20;99.90;;;;;;5049341;28;20229;-66
2021/11/15 11:42:19;;;;;;;13.93;12.23;;;9.20;99.90;;;;;;5051079;28;20194;-67
2021/11/15 11:44:46;;;;;;;15.27;12.83;;;9.20;99.90;;;;;;5050848;28;20170;-67
2021/11/15 11:47:16;;;;;;;16.33;13.63;;;9.20;99.90;;;;;;5051331;28;20262;-66
2021/11/15 11:49:43;;;;;;;17.23;12.73;;;9.30;99.90;;;;;;5050558;28;20199;-67
2021/11/15 11:52:12;;;;;;;15.03;11.60;;;9.30;99.90;;;;;;5049720;28;20632;-67
2021/11/15 11:54:48;;;;;;;14.50;12.77;;;9.40;99.90;;;;;;5050732;28;20229;-67
2021/11/15 11:57:15;;;;;;;16.23;13.13;;;9.40;99.90;;;;;;5050714;28;20171;-64
2021/11/15 11:59:47;;;;;;;13.93;12.07;;;9.30;99.90;;;;;;5050873;28;20224;-66
2021/11/15 12:02:20;;;;;;;14.10;12.60;;;9.30;99.90;;;;;;5050846;28;20259;-67
2021/11/15 12:04:58;;;;;;;13.63;12.23;;;9.20;99.90;;;;;;5050574;28;20183;-66
2021/11/15 12:07:30;;;;;;;16.30;12.23;;;9.30;99.90;;;;;;5050641;28;20171;-66
2021/11/15 12:09:57;;;;;;;15.50;12.40;;;9.30;99.90;;;;;;5052422;28;20220;-66
2021/11/15 12:12:24;;;;;;;13.53;12.23;;;9.30;99.90;;;;;;5054466;28;20178;-65
2021/11/15 12:14:50;;;;;;;14.47;12.93;;;9.20;99.90;;;;;;5054797;28;20178;-67
2021/11/15 12:17:18;;;;;;;14.67;13.07;;;9.20;99.90;;;;;;5054352;28;20297;-66
2021/11/15 12:19:53;;;;;;;15.57;12.60;;;9.20;99.90;;;;;;5052999;28;20225;-66
2021/11/15 12:22:24;;;;;;;14.03;12.33;;;9.10;99.90;;;;;;5054445;28;20202;-67
2021/11/15 12:25:05;;;;;;;14.03;12.63;;;9.00;99.90;;;;;;5054450;28;20167;-66
2021/11/15 12:27:41;;;;;;;17.07;14.00;;;9.10;99.90;;;;;;5053930;28;20182;-67
2021/11/15 12:30:20;;;;;;;13.90;12.50;;;9.10;99.90;;;;;;5054216;28;20178;-66
2021/11/15 12:33:15;;;;;;;14.00;12.03;;;9.10;99.90;;;;;;5052673;28;20202;-67
2021/11/15 12:36:01;;;;;;;16.23;13.13;;;9.10;99.90;;;;;;5054064;28;20182;-67
2021/11/15 12:38:40;;;;;;;16.27;13.30;;;9.10;99.90;;;;;;5054059;28;20178;-67
2021/11/15 12:41:25;;;;;;;13.27;11.80;;;9.00;99.90;;;;;;5053789;28;20258;-65
2021/11/15 12:44:00;;;;;;;16.80;12.53;;;8.90;99.90;;;;;;5052794;28;20695;-67
2021/11/15 12:46:57;;;;;;;14.63;12.33;;;8.90;99.90;;;;;;5053879;28;20175;-67
2021/11/15 12:49:30;;;;;;;15.83;13.60;;;9.00;99.90;;;;;;5053711;28;20194;-64